createdAt,value
2019-02-25T00:01:22.991Z,32.63
2019-02-25T00:03:49.994Z,30.43
2019-02-25T00:06:17.004Z,33.93
2019-02-25T00:08:44.118Z,33.37
2019-02-25T00:11:11.325Z,28.70
2019-02-25T00:13:38.177Z,32.23
2019-02-25T00:16:05.301Z,32.70
2019-02-25T00:18:32.312Z,32.77
2019-02-25T00:20:59.304Z,30.30
2019-02-25T00:23:26.640Z,27.90
2019-02-25T00:25:53.895Z,28.67
2019-02-25T00:28:20.953Z,31.47
2019-02-25T00:30:48.233Z,26.30
2019-02-25T00:33:15.384Z,24.60
2019-02-25T00:35:42.493Z,33.90
2019-02-25T00:38:09.488Z,28.40
2019-02-25T00:40:37.468Z,30.00
2019-02-25T00:43:04.506Z,31.20
2019-02-25T00:45:31.430Z,35.60
2019-02-25T00:47:58.434Z,31.23
2019-02-25T00:50:27.325Z,32.67
2019-02-25T00:52:54.526Z,35.30
2019-02-25T00:55:21.855Z,29.70
2019-02-25T00:57:48.896Z,30.70
2019-02-25T01:00:16.616Z,34.60
2019-02-25T01:02:43.823Z,28.37
2019-02-25T01:05:10.831Z,28.00
2019-02-25T01:07:38.019Z,32.80
2019-02-25T01:10:05.283Z,30.17
2019-02-25T01:12:32.827Z,31.57
2019-02-25T01:14:59.624Z,29.03
2019-02-25T01:17:26.467Z,28.83
2019-02-25T01:19:53.261Z,27.70
2019-02-25T01:22:20.057Z,27.20
2019-02-25T01:24:46.979Z,30.53
2019-02-25T01:27:13.804Z,28.73
2019-02-25T01:29:40.614Z,30.43
2019-02-25T01:32:07.542Z,30.07
2019-02-25T01:34:34.365Z,25.10
2019-02-25T01:37:01.207Z,27.77
2019-02-25T01:39:28.099Z,25.00
2019-02-25T01:41:55.085Z,23.87
2019-02-25T01:44:21.995Z,27.33
2019-02-25T01:46:48.840Z,29.73
2019-02-25T01:49:15.695Z,27.00
2019-02-25T01:51:42.519Z,28.20
2019-02-25T01:54:09.821Z,29.70
2019-02-25T01:56:36.695Z,34.43
2019-02-25T01:59:03.596Z,27.30
2019-02-25T02:01:30.453Z,23.03
2019-02-25T02:03:57.315Z,24.37
2019-02-25T02:06:24.236Z,29.80
2019-02-25T02:08:51.065Z,23.97
2019-02-25T02:11:17.881Z,29.33
2019-02-25T02:13:44.864Z,25.77
2019-02-25T02:16:12.020Z,27.97
2019-02-25T02:18:38.869Z,25.83
2019-02-25T02:21:05.668Z,26.50
2019-02-25T02:23:32.723Z,29.67
2019-02-25T02:25:59.559Z,26.23
2019-02-25T02:28:26.588Z,22.43
2019-02-25T02:30:53.496Z,25.87
2019-02-25T02:33:20.436Z,25.43
2019-02-25T02:35:47.283Z,29.30
2019-02-25T02:38:14.321Z,28.10
2019-02-25T02:40:41.151Z,27.80
2019-02-25T02:43:07.997Z,23.13
2019-02-25T02:45:36.566Z,27.10
2019-02-25T02:48:11.526Z,24.50
2019-02-25T02:50:38.390Z,28.37
2019-02-25T02:53:05.260Z,25.87
2019-02-25T02:55:32.095Z,27.83
2019-02-25T02:57:59.034Z,27.33
2019-02-25T03:00:25.843Z,29.87
2019-02-25T03:02:52.720Z,27.63
2019-02-25T03:05:19.590Z,24.93
2019-02-25T03:07:46.494Z,23.47
2019-02-25T03:10:14.422Z,23.43
2019-02-25T03:12:41.726Z,24.33
2019-02-25T03:15:10.319Z,23.47
2019-02-25T03:17:37.247Z,24.20
2019-02-25T03:20:04.475Z,27.43
2019-02-25T03:22:31.333Z,28.43
2019-02-25T03:24:58.169Z,23.90
2019-02-25T03:27:25.040Z,25.73
2019-02-25T03:29:51.879Z,26.67
2019-02-25T03:32:18.665Z,24.10
2019-02-25T03:34:45.568Z,25.30
2019-02-25T03:37:12.389Z,23.03
2019-02-25T03:39:39.348Z,28.60
2019-02-25T03:42:06.353Z,22.47
2019-02-25T03:44:33.308Z,27.10
2019-02-25T03:47:00.112Z,25.27
2019-02-25T03:49:26.923Z,27.77
2019-02-25T03:51:53.724Z,27.27
2019-02-25T03:54:20.554Z,22.80
2019-02-25T03:56:47.579Z,25.73
2019-02-25T03:59:14.488Z,29.20
2019-02-25T04:01:41.313Z,25.83
2019-02-25T04:04:08.103Z,22.70
2019-02-25T04:06:42.577Z,29.87
2019-02-25T04:09:09.641Z,22.10
2019-02-25T04:11:36.496Z,21.77
2019-02-25T04:14:03.407Z,22.47
2019-02-25T04:16:30.327Z,24.67
2019-02-25T04:18:57.127Z,24.30
2019-02-25T04:21:23.973Z,23.30
2019-02-25T04:23:50.778Z,26.53
2019-02-25T04:26:17.857Z,24.53
2019-02-25T04:28:44.988Z,23.53
2019-02-25T04:31:12.111Z,26.23
2019-02-25T04:33:39.027Z,23.97
2019-02-25T04:36:05.952Z,23.70
2019-02-25T04:38:32.769Z,23.90
2019-02-25T04:40:59.957Z,26.10
2019-02-25T04:43:26.821Z,25.70
2019-02-25T04:45:53.699Z,25.47
2019-02-25T04:48:20.541Z,28.00
2019-02-25T04:50:47.708Z,25.60
2019-02-25T04:53:14.590Z,27.30
2019-02-25T04:55:41.590Z,25.00
2019-02-25T04:58:08.429Z,25.23
2019-02-25T05:00:35.223Z,24.67
2019-02-25T05:03:02.141Z,25.90
2019-02-25T05:05:29.172Z,26.53
2019-02-25T05:07:56.033Z,24.93
2019-02-25T05:10:23.011Z,25.93
2019-02-25T05:12:55.144Z,27.17
2019-02-25T05:15:23.454Z,24.03
2019-02-25T05:17:50.285Z,24.57
2019-02-25T05:20:17.219Z,30.23
2019-02-25T05:22:44.111Z,27.57
2019-02-25T05:25:11.135Z,27.47
2019-02-25T05:27:37.923Z,24.77
2019-02-25T05:30:04.918Z,25.20
2019-02-25T05:32:31.861Z,22.50
2019-02-25T05:34:58.715Z,24.97
2019-02-25T05:37:25.669Z,27.10
2019-02-25T05:39:52.783Z,27.57
2019-02-25T05:42:19.741Z,24.23
2019-02-25T05:44:46.680Z,26.17
2019-02-25T05:47:13.546Z,29.57
2019-02-25T05:49:40.337Z,29.63
2019-02-25T05:52:07.160Z,31.50
2019-02-25T05:54:33.951Z,29.23
2019-02-25T05:57:00.766Z,34.63
2019-02-25T05:59:27.647Z,28.60
2019-02-25T06:01:54.769Z,29.47
2019-02-25T06:04:21.723Z,26.87
2019-02-25T06:06:48.543Z,30.13
2019-02-25T06:09:15.344Z,26.57
2019-02-25T06:11:42.138Z,37.73
2019-02-25T06:14:09.055Z,25.70
2019-02-25T06:16:36.040Z,30.40
2019-02-25T06:19:03.109Z,31.20
2019-02-25T06:21:30.043Z,26.20
2019-02-25T06:23:57.277Z,32.10
2019-02-25T06:26:24.196Z,27.00
2019-02-25T06:28:50.973Z,29.67
2019-02-25T06:31:17.985Z,30.43
2019-02-25T06:33:45.127Z,31.43
2019-02-25T06:36:31.604Z,29.43
2019-02-25T06:38:58.392Z,28.20
2019-02-25T06:41:25.512Z,29.13
2019-02-25T06:43:52.347Z,31.40
2019-02-25T06:46:19.297Z,29.30
2019-02-25T06:48:46.210Z,29.67
2019-02-25T06:51:13.049Z,32.40
2019-02-25T06:53:40.255Z,31.17
2019-02-25T06:56:07.043Z,32.27
2019-02-25T06:58:34.205Z,26.03
2019-02-25T07:01:01.087Z,33.57
2019-02-25T07:03:28.047Z,35.43
2019-02-25T07:06:09.388Z,26.60
2019-02-25T07:08:59.390Z,31.20
2019-02-25T07:11:54.989Z,39.63
2019-02-25T07:14:32.431Z,30.93
2019-02-25T07:17:22.763Z,30.40
2019-02-25T07:20:01.423Z,31.33
2019-02-25T07:22:57.151Z,33.90
2019-02-25T07:25:46.112Z,34.50
2019-02-25T07:28:27.273Z,32.87
2019-02-25T07:31:02.483Z,36.77
2019-02-25T07:33:49.098Z,32.47
2019-02-25T07:36:24.559Z,33.93
2019-02-25T07:38:59.178Z,35.67
2019-02-25T07:41:48.424Z,37.03
2019-02-25T07:44:29.253Z,39.60
2019-02-25T07:47:12.679Z,36.40
2019-02-25T07:50:00.375Z,30.00
2019-02-25T07:52:45.665Z,32.53
2019-02-25T07:55:44.380Z,29.83
2019-02-25T07:58:15.879Z,30.07
2019-02-25T08:01:11.689Z,39.97
2019-02-25T08:03:44.551Z,32.63
2019-02-25T08:06:25.796Z,33.27
2019-02-25T08:09:11.292Z,35.97
2019-02-25T08:11:48.914Z,36.10
2019-02-25T08:14:25.539Z,44.53
2019-02-25T08:17:10.762Z,40.77
2019-02-25T08:19:55.894Z,36.97
2019-02-25T08:22:32.247Z,39.90
2019-02-25T08:25:08.727Z,36.83
2019-02-25T08:27:54.451Z,43.83
2019-02-25T08:30:33.216Z,39.17
2019-02-25T08:33:07.397Z,39.73
2019-02-25T08:36:11.302Z,38.20
2019-02-25T08:38:51.818Z,44.80
2019-02-25T08:41:30.271Z,39.63
2019-02-25T08:44:15.656Z,35.50
2019-02-25T08:46:47.095Z,37.57
2019-02-25T08:49:21.443Z,46.83
2019-02-25T08:51:48.278Z,43.57
2019-02-25T08:54:15.619Z,39.03
2019-02-25T08:56:42.553Z,38.13
2019-02-25T08:59:09.429Z,42.40
2019-02-25T09:01:36.500Z,50.73
2019-02-25T09:04:03.473Z,41.67
2019-02-25T09:06:30.329Z,41.73
2019-02-25T09:08:57.199Z,51.43
2019-02-25T09:11:24.163Z,40.33
2019-02-25T09:13:51.266Z,45.63
2019-02-25T09:16:18.229Z,45.10
2019-02-25T09:18:45.152Z,45.80
2019-02-25T09:21:12.025Z,41.97
2019-02-25T09:23:38.813Z,43.43
2019-02-25T09:26:07.036Z,49.83
2019-02-25T09:28:33.935Z,47.33
2019-02-25T09:31:00.776Z,46.00
2019-02-25T09:33:27.570Z,51.57
2019-02-25T09:35:54.408Z,54.70
2019-02-25T09:38:21.304Z,51.93
2019-02-25T09:40:48.162Z,49.50
2019-02-25T09:43:15.073Z,52.07
2019-02-25T09:45:42.009Z,51.10
2019-02-25T09:48:09.204Z,53.63
2019-02-25T09:50:36.107Z,58.63
2019-02-25T09:53:03.219Z,57.70
2019-02-25T09:55:30.066Z,58.73
2019-02-25T09:57:56.964Z,62.47
2019-02-25T10:00:23.911Z,59.40
2019-02-25T10:02:51.084Z,56.23
2019-02-25T10:05:18.158Z,59.87
2019-02-25T10:07:45.829Z,61.03
2019-02-25T10:10:12.773Z,59.10
2019-02-25T10:12:39.664Z,55.40
2019-02-25T10:15:07.233Z,54.30
2019-02-25T10:17:34.078Z,55.13
2019-02-25T10:20:01.428Z,55.30
2019-02-25T10:22:28.321Z,54.17
2019-02-25T10:24:55.224Z,57.43
2019-02-25T10:27:22.208Z,52.90
2019-02-25T10:29:49.101Z,53.63
2019-02-25T10:32:16.533Z,61.97
2019-02-25T10:34:43.412Z,51.80
2019-02-25T10:37:11.054Z,55.77
2019-02-25T10:39:39.099Z,61.87
2019-02-25T10:42:05.871Z,60.63
2019-02-25T10:44:34.061Z,56.83
2019-02-25T10:47:01.997Z,57.60
2019-02-25T10:49:31.214Z,58.53
2019-02-25T10:51:58.291Z,54.23
2019-02-25T10:54:25.504Z,55.00
2019-02-25T10:56:59.841Z,53.53
2019-02-25T10:59:26.704Z,59.70
2019-02-25T11:01:53.600Z,59.00
2019-02-25T11:04:21.774Z,62.33
2019-02-25T11:06:49.122Z,59.63
2019-02-25T11:09:34.395Z,61.93
2019-02-25T11:12:02.161Z,55.77
2019-02-25T11:14:28.944Z,67.17
2019-02-25T11:16:55.863Z,52.37
2019-02-25T11:19:24.451Z,60.03
2019-02-25T11:21:51.495Z,57.70
2019-02-25T11:24:20.328Z,47.40
2019-02-25T11:26:47.398Z,55.00
2019-02-25T11:29:16.292Z,49.10
2019-02-25T11:31:45.130Z,50.83
2019-02-25T11:34:12.091Z,52.27
2019-02-25T11:36:39.031Z,49.50
2019-02-25T11:39:07.005Z,50.53
2019-02-25T11:41:36.532Z,45.97
2019-02-25T11:44:03.820Z,44.60
2019-02-25T11:46:30.770Z,58.57
2019-02-25T11:48:57.707Z,48.37
2019-02-25T11:51:24.519Z,45.53
2019-02-25T11:53:51.553Z,45.27
2019-02-25T11:56:18.403Z,51.73
2019-02-25T11:58:45.336Z,47.07
2019-02-25T12:01:13.234Z,47.30
2019-02-25T12:03:40.162Z,45.37
2019-02-25T12:06:07.147Z,50.43
2019-02-25T12:08:34.292Z,45.83
2019-02-25T12:11:01.129Z,49.00
2019-02-25T12:13:28.084Z,45.60
2019-02-25T12:15:55.896Z,49.57
2019-02-25T12:18:22.957Z,51.63
2019-02-25T12:20:49.993Z,48.93
2019-02-25T12:23:17.139Z,47.87
2019-02-25T12:25:44.288Z,48.10
2019-02-25T12:28:11.193Z,49.33
2019-02-25T12:30:38.071Z,57.20
2019-02-25T12:33:04.943Z,58.30
2019-02-25T12:35:31.930Z,46.77
2019-02-25T12:37:58.757Z,59.10
2019-02-25T12:40:25.948Z,49.27
2019-02-25T12:42:52.820Z,44.20
2019-02-25T12:45:19.855Z,51.60
2019-02-25T12:47:47.239Z,50.40
2019-02-25T12:50:14.719Z,47.10
2019-02-25T12:52:41.647Z,54.57
2019-02-25T12:55:08.954Z,46.90
2019-02-25T12:57:35.861Z,47.90
2019-02-25T13:00:03.601Z,45.70
2019-02-25T13:02:30.648Z,45.30
2019-02-25T13:04:57.565Z,51.40
2019-02-25T13:07:24.410Z,43.97
2019-02-25T13:09:51.416Z,49.63
2019-02-25T13:12:18.422Z,53.03
2019-02-25T13:14:45.349Z,50.70
2019-02-25T13:17:12.264Z,47.43
2019-02-25T13:19:39.089Z,48.70
2019-02-25T13:22:06.007Z,61.17
2019-02-25T13:24:35.069Z,47.90
2019-02-25T13:27:03.188Z,55.13
2019-02-25T13:29:31.769Z,51.33
2019-02-25T13:31:58.932Z,45.47
2019-02-25T13:34:28.502Z,44.30
2019-02-25T13:36:55.754Z,47.77
2019-02-25T13:39:26.335Z,46.93
2019-02-25T13:41:54.341Z,53.83
2019-02-25T13:44:21.265Z,55.53
2019-02-25T13:46:50.463Z,44.50
2019-02-25T13:49:20.659Z,46.07
2019-02-25T13:51:47.751Z,49.83
2019-02-25T13:54:14.736Z,50.10
2019-02-25T13:56:42.317Z,52.20
2019-02-25T13:59:09.544Z,53.70
2019-02-25T14:01:36.677Z,55.60
2019-02-25T14:04:03.770Z,54.27
2019-02-25T14:06:30.763Z,54.53
2019-02-25T14:08:57.733Z,54.37
2019-02-25T14:11:24.715Z,48.80
2019-02-25T14:13:51.907Z,48.23
2019-02-25T14:16:19.045Z,52.83
2019-02-25T14:18:49.220Z,49.97
2019-02-25T14:21:16.839Z,49.30
2019-02-25T14:23:44.993Z,53.20
2019-02-25T14:26:22.408Z,48.10
2019-02-25T14:28:49.699Z,48.00
2019-02-25T14:31:30.522Z,49.50
2019-02-25T14:33:58.151Z,49.10
2019-02-25T14:36:28.144Z,52.17
2019-02-25T14:38:56.384Z,51.00
2019-02-25T14:41:23.780Z,48.20
2019-02-25T14:43:51.565Z,46.00
2019-02-25T14:46:22.603Z,50.10
2019-02-25T14:48:48.352Z,43.77
2019-02-25T14:51:15.225Z,45.80
2019-02-25T14:53:44.715Z,48.10
2019-02-25T14:56:11.839Z,42.30
2019-02-25T14:58:40.567Z,46.97
2019-02-25T15:01:07.993Z,45.17
2019-02-25T15:03:34.939Z,44.43
2019-02-25T15:06:02.064Z,44.13
2019-02-25T15:08:30.614Z,39.80
2019-02-25T15:11:01.904Z,42.83
2019-02-25T15:13:28.227Z,42.93
2019-02-25T15:15:55.679Z,42.33
2019-02-25T15:18:25.205Z,41.13
2019-02-25T15:20:53.146Z,42.83
2019-02-25T15:23:23.671Z,54.00
2019-02-25T15:25:49.402Z,42.00
2019-02-25T15:28:18.009Z,42.60
2019-02-25T15:30:47.868Z,41.37
2019-02-25T15:33:14.939Z,39.27
2019-02-25T15:35:43.693Z,37.40
2019-02-25T15:38:11.107Z,46.30
2019-02-25T15:40:38.092Z,38.13
2019-02-25T15:43:06.267Z,36.13
2019-02-25T15:45:38.366Z,44.37
2019-02-25T15:48:07.894Z,35.77
2019-02-25T15:50:35.163Z,36.90
2019-02-25T15:53:03.285Z,37.87
2019-02-25T15:55:30.881Z,32.40
2019-02-25T15:57:57.847Z,46.47
2019-02-25T16:00:27.507Z,45.57
2019-02-25T16:02:55.028Z,40.33
2019-02-25T16:05:23.361Z,37.50
2019-02-25T16:07:51.873Z,36.87
2019-02-25T16:10:19.421Z,34.40
2019-02-25T16:12:46.361Z,39.57
2019-02-25T16:15:14.979Z,42.27
2019-02-25T16:17:43.582Z,40.13
2019-02-25T16:20:10.811Z,44.37
2019-02-25T16:22:39.109Z,44.53
2019-02-25T16:25:09.286Z,39.20
2019-02-25T16:27:36.894Z,42.20
2019-02-25T16:30:05.706Z,42.93
2019-02-25T16:32:33.822Z,44.23
2019-02-25T16:35:02.658Z,41.17
2019-02-25T16:37:31.220Z,39.00
2019-02-25T16:40:00.510Z,41.67
2019-02-25T16:42:28.232Z,40.70
2019-02-25T16:44:57.542Z,40.67
2019-02-25T16:47:32.833Z,39.83
2019-02-25T16:49:54.258Z,40.20
2019-02-25T16:52:24.366Z,37.53
2019-02-25T16:54:52.365Z,37.33
2019-02-25T16:57:21.175Z,35.70
2019-02-25T16:59:47.944Z,39.07
2019-02-25T17:02:15.105Z,43.50
2019-02-25T17:04:42.116Z,37.87
2019-02-25T17:07:09.063Z,40.93
2019-02-25T17:09:38.670Z,38.73
2019-02-25T17:12:06.867Z,41.77
2019-02-25T17:14:34.769Z,39.63
2019-02-25T17:17:02.122Z,36.80
2019-02-25T17:19:29.243Z,40.17
2019-02-25T17:21:56.208Z,42.23
2019-02-25T17:24:24.105Z,55.73
2019-02-25T17:26:52.093Z,40.93
2019-02-25T17:29:19.060Z,38.30
2019-02-25T17:31:46.004Z,38.17
2019-02-25T17:34:16.656Z,35.10
2019-02-25T17:36:44.851Z,35.40
2019-02-25T17:39:14.857Z,36.73
2019-02-25T17:41:42.603Z,41.23
2019-02-25T17:44:10.571Z,36.93
2019-02-25T17:46:39.108Z,42.93
2019-02-25T17:49:08.266Z,37.23
2019-02-25T17:51:35.745Z,48.67
2019-02-25T17:54:03.196Z,35.67
2019-02-25T17:56:30.227Z,37.70
2019-02-25T17:58:59.347Z,37.93
2019-02-25T18:01:27.994Z,36.20
2019-02-25T18:03:55.149Z,32.87
2019-02-25T18:06:22.905Z,38.93
2019-02-25T18:08:52.714Z,36.47
2019-02-25T18:11:20.217Z,39.20
2019-02-25T18:13:48.926Z,37.80
2019-02-25T18:16:18.994Z,37.70
2019-02-25T18:18:47.494Z,42.40
2019-02-25T18:21:14.837Z,34.23
2019-02-25T18:23:41.760Z,36.70
2019-02-25T18:26:08.847Z,42.40
2019-02-25T18:28:37.421Z,38.90
2019-02-25T18:31:08.474Z,38.13
2019-02-25T18:33:33.566Z,40.50
2019-02-25T18:36:01.993Z,36.83
2019-02-25T18:38:31.285Z,39.40
2019-02-25T18:41:00.079Z,41.63
2019-02-25T18:43:28.298Z,40.10
2019-02-25T18:45:56.655Z,38.37
2019-02-25T18:48:25.333Z,43.70
2019-02-25T18:50:56.621Z,41.50
2019-02-25T18:53:22.587Z,39.90
2019-02-25T18:55:52.248Z,36.70
2019-02-25T18:58:20.410Z,42.93
2019-02-25T19:00:49.291Z,43.97
2019-02-25T19:03:16.824Z,40.33
2019-02-25T19:05:43.762Z,42.67
2019-02-25T19:08:15.015Z,41.60
2019-02-25T19:10:45.323Z,45.43
2019-02-25T19:13:13.228Z,43.70
2019-02-25T19:15:40.269Z,37.80
2019-02-25T19:18:08.929Z,41.30
2019-02-25T19:20:36.694Z,41.50
2019-02-25T19:23:05.379Z,43.07
2019-02-25T19:25:33.113Z,40.83
2019-02-25T19:28:00.038Z,49.07
2019-02-25T19:30:27.918Z,51.37
2019-02-25T19:32:56.167Z,44.50
2019-02-25T19:35:25.817Z,42.20
2019-02-25T19:37:52.074Z,39.00
2019-02-25T19:40:20.042Z,37.27
2019-02-25T19:42:51.316Z,38.80
2019-02-25T19:45:19.117Z,42.63
2019-02-25T19:47:47.121Z,41.80
2019-02-25T19:50:15.958Z,39.07
2019-02-25T19:52:44.369Z,41.87
2019-02-25T19:55:13.022Z,41.60
2019-02-25T19:57:44.158Z,40.60
2019-02-25T20:00:14.879Z,46.17
2019-02-25T20:02:41.969Z,40.17
2019-02-25T20:05:11.724Z,42.70
2019-02-25T20:07:38.025Z,40.30
2019-02-25T20:10:05.211Z,40.67
2019-02-25T20:12:35.610Z,37.20
2019-02-25T20:15:07.126Z,41.80
2019-02-25T20:17:32.710Z,46.17
2019-02-25T20:19:59.590Z,41.60
2019-02-25T20:22:27.052Z,38.90
2019-02-25T20:24:55.240Z,43.03
2019-02-25T20:27:22.614Z,38.03
2019-02-25T20:29:58.029Z,46.50
2019-02-25T20:32:26.139Z,43.40
2019-02-25T20:34:57.202Z,42.00
2019-02-25T20:37:25.563Z,41.10
2019-02-25T20:39:53.855Z,41.53
2019-02-25T20:42:22.317Z,40.00
2019-02-25T20:44:52.865Z,43.73
2019-02-25T20:47:18.287Z,44.00
2019-02-25T20:49:47.415Z,43.43
2019-02-25T20:52:15.907Z,40.00
2019-02-25T20:54:45.418Z,41.10
2019-02-25T20:57:14.293Z,45.60
2019-02-25T20:59:42.832Z,42.17
2019-02-25T21:02:13.767Z,42.00
2019-02-25T21:04:40.726Z,41.03
2019-02-25T21:07:08.857Z,44.80
2019-02-25T21:09:38.345Z,44.03
2019-02-25T21:12:07.876Z,49.90
2019-02-25T21:14:40.310Z,45.13
2019-02-25T21:17:06.872Z,43.33
2019-02-25T21:19:36.165Z,41.90
2019-02-25T21:22:04.481Z,42.70
2019-02-25T21:24:33.298Z,43.90
2019-02-25T21:27:01.476Z,59.83
2019-02-25T21:29:31.637Z,44.87
2019-02-25T21:31:59.094Z,47.07
2019-02-25T21:34:27.055Z,38.43
2019-02-25T21:36:56.274Z,42.63
2019-02-25T21:39:23.668Z,41.50
2019-02-25T21:41:50.943Z,43.10
2019-02-25T21:44:19.506Z,42.40
2019-02-25T21:46:49.505Z,47.60
2019-02-25T21:49:15.286Z,44.60
2019-02-25T21:51:43.756Z,44.67
2019-02-25T21:54:11.099Z,50.63
2019-02-25T21:56:38.047Z,41.90
2019-02-25T21:59:06.235Z,45.77
2019-02-25T22:01:34.535Z,42.53
2019-02-25T22:04:02.624Z,44.03
2019-02-25T22:06:31.598Z,44.60
2019-02-25T22:09:00.775Z,44.47
2019-02-25T22:11:28.352Z,43.83
2019-02-25T22:13:55.458Z,42.33
2019-02-25T22:16:23.571Z,41.17
2019-02-25T22:18:52.135Z,41.60
2019-02-25T22:21:21.147Z,42.97
2019-02-25T22:23:49.481Z,42.93
2019-02-25T22:26:17.406Z,40.87
2019-02-25T22:28:44.336Z,36.17
2019-02-25T22:31:13.373Z,37.87
2019-02-25T22:33:40.085Z,42.57
2019-02-25T22:36:07.007Z,42.50
2019-02-25T22:38:33.922Z,39.83
2019-02-25T22:41:02.284Z,41.60
2019-02-25T22:43:29.379Z,42.10
2019-02-25T22:45:58.202Z,41.90
2019-02-25T22:48:26.740Z,41.90
2019-02-25T22:50:55.467Z,46.57
2019-02-25T22:53:22.645Z,41.93
2019-02-25T22:55:52.225Z,40.20
2019-02-25T22:58:18.841Z,42.80
2019-02-25T23:00:48.847Z,43.60
2019-02-25T23:03:18.538Z,41.80
2019-02-25T23:05:46.904Z,42.70
2019-02-25T23:08:15.353Z,38.43
2019-02-25T23:10:44.361Z,40.50
2019-02-25T23:13:12.506Z,44.13
2019-02-25T23:15:39.335Z,40.43
2019-02-25T23:18:10.055Z,40.47
2019-02-25T23:20:35.042Z,48.93
2019-02-25T23:23:04.857Z,40.47
2019-02-25T23:25:30.791Z,39.93
2019-02-25T23:27:58.503Z,44.93
2019-02-25T23:30:26.462Z,44.20
2019-02-25T23:32:54.527Z,37.90
2019-02-25T23:35:23.008Z,41.27
2019-02-25T23:37:51.406Z,41.10
2019-02-25T23:40:19.560Z,43.53
2019-02-25T23:42:48.523Z,39.67
2019-02-25T23:45:17.435Z,40.43
2019-02-25T23:47:44.416Z,40.47
2019-02-25T23:50:13.538Z,41.50
2019-02-25T23:52:40.284Z,43.50
2019-02-25T23:55:07.621Z,40.33
2019-02-25T23:57:35.247Z,39.77
